Time;durP1;ratioP1;P1;durP2;ratioP2;P2;SDS_P1;SDS_P2;PMS_P1;PMS_P2;Temp;Humidity;BMP_temperature;BMP_pressure;BME280_temperature;BME280_humidity;BME280_pressure;Samples;Min_cycle;Max_cycle;Signal;HPM_P1;HPM_P2
2023/11/17 00:00:19;;;;;;;3.20;2.90;;;12.20;72.60;;;;;;5047219;28;20710;-51
2023/11/17 00:02:45;;;;;;;3.53;3.23;;;12.10;72.10;;;;;;5037060;28;20610;-50
2023/11/17 00:05:11;;;;;;;2.80;2.60;;;12.00;72.60;;;;;;5040025;28;21011;-53
2023/11/17 00:07:37;;;;;;;2.97;2.77;;;12.10;72.40;;;;;;5042474;28;20447;-52
2023/11/17 00:10:03;;;;;;;3.43;3.13;;;12.20;72.00;;;;;;5035673;28;20467;-52
2023/11/17 00:12:29;;;;;;;2.07;1.97;;;12.10;72.40;;;;;;5041648;28;20188;-55
2023/11/17 00:14:55;;;;;;;3.27;2.40;;;12.00;71.90;;;;;;5035372;28;20434;-53
2023/11/17 00:17:22;;;;;;;2.47;2.10;;;11.90;72.20;;;;;;5037101;28;20496;-52
2023/11/17 00:19:48;;;;;;;2.80;2.00;;;11.90;72.00;;;;;;5040834;28;20216;-53
2023/11/17 00:22:14;;;;;;;2.50;2.30;;;12.00;72.20;;;;;;5040145;28;20789;-50
2023/11/17 00:24:40;;;;;;;2.17;2.00;;;12.00;72.00;;;;;;5040810;28;20549;-50
2023/11/17 00:27:06;;;;;;;2.43;2.23;;;12.00;72.20;;;;;;5039658;28;20526;-49
2023/11/17 00:29:31;;;;;;;2.50;2.30;;;11.80;72.50;;;;;;5043176;28;20546;-52
2023/11/17 00:31:57;;;;;;;1.97;1.77;;;11.70;73.00;;;;;;5034341;28;20789;-54
2023/11/17 00:34:23;;;;;;;2.77;2.57;;;11.70;73.50;;;;;;5040603;28;20196;-55
2023/11/17 00:36:49;;;;;;;2.67;1.87;;;11.60;73.30;;;;;;5030126;28;20493;-51
2023/11/17 00:39:14;;;;;;;2.30;2.20;;;11.50;74.40;;;;;;5039500;28;20319;-51
2023/11/17 00:41:44;;;;;;;2.17;2.00;;;11.70;74.30;;;;;;5035018;28;20243;-50
2023/11/17 00:44:10;;;;;;;4.03;3.30;;;11.80;73.80;;;;;;5036461;28;20199;-51
2023/11/17 00:46:35;;;;;;;2.60;2.23;;;11.80;73.10;;;;;;5040053;28;20538;-51
2023/11/17 00:49:03;;;;;;;1.90;1.80;;;11.70;73.40;;;;;;5041248;28;20524;-53
2023/11/17 00:51:29;;;;;;;2.10;1.80;;;11.70;73.50;;;;;;5043171;28;20192;-49
2023/11/17 00:54:00;;;;;;;2.40;2.20;;;11.60;74.00;;;;;;5039491;28;20439;-48
2023/11/17 00:56:26;;;;;;;2.37;2.17;;;11.50;74.30;;;;;;5041430;28;20443;-50
2023/11/17 00:58:52;;;;;;;1.80;1.70;;;11.50;74.20;;;;;;5043385;28;20497;-50
2023/11/17 01:01:17;;;;;;;6.57;3.97;;;11.20;74.60;;;;;;5042020;28;21005;-51
2023/11/17 01:03:45;;;;;;;2.80;2.60;;;11.30;74.80;;;;;;5041850;28;20184;-50
2023/11/17 01:06:10;;;;;;;2.43;2.23;;;11.20;75.10;;;;;;5038499;28;20185;-49
2023/11/17 01:08:36;;;;;;;2.80;2.60;;;11.10;75.60;;;;;;5043524;28;20477;-48
2023/11/17 01:11:01;;;;;;;3.33;2.10;;;11.00;76.00;;;;;;5040127;28;20783;-52
2023/11/17 01:13:27;;;;;;;1.93;1.83;;;11.10;76.00;;;;;;5034307;28;20291;-51
2023/11/17 01:15:53;;;;;;;3.43;2.00;;;11.10;75.70;;;;;;5040217;28;20181;-52
2023/11/17 01:18:18;;;;;;;2.70;2.00;;;11.00;75.70;;;;;;5042573;28;20533;-50
2023/11/17 01:20:45;;;;;;;4.47;3.20;;;10.90;75.70;;;;;;5042327;28;20208;-50
2023/11/17 01:23:10;;;;;;;1.97;1.87;;;11.00;76.00;;;;;;5037744;28;20270;-50
2023/11/17 01:25:36;;;;;;;2.00;1.70;;;10.90;75.70;;;;;;5041614;28;20499;-53
2023/11/17 01:28:03;;;;;;;2.40;2.20;;;10.80;75.70;;;;;;5042857;28;20830;-52
2023/11/17 01:30:30;;;;;;;1.70;1.60;;;10.80;75.90;;;;;;5037973;28;20357;-50
2023/11/17 01:32:56;;;;;;;1.47;1.37;;;10.80;76.30;;;;;;5037907;28;20507;-53
2023/11/17 01:35:22;;;;;;;1.47;1.30;;;10.80;76.10;;;;;;5040525;28;20443;-52
2023/11/17 01:37:48;;;;;;;1.40;1.30;;;11.00;75.00;;;;;;5033951;28;20652;-54
2023/11/17 01:40:15;;;;;;;1.40;1.30;;;11.00;74.30;;;;;;5034542;28;20555;-49
2023/11/17 01:42:41;;;;;;;4.00;1.80;;;11.20;73.90;;;;;;5029557;28;20188;-55
2023/11/17 01:45:10;;;;;;;1.77;1.30;;;11.20;74.00;;;;;;5036730;28;20535;-51
2023/11/17 01:47:39;;;;;;;1.47;1.37;;;10.90;74.80;;;;;;5042348;28;20435;-52
2023/11/17 01:50:09;;;;;;;1.53;1.27;;;10.80;74.90;;;;;;5039218;28;20478;-50
2023/11/17 01:52:35;;;;;;;1.57;1.47;;;11.00;74.80;;;;;;5037875;28;20436;-51
2023/11/17 01:55:05;;;;;;;1.93;1.73;;;11.10;73.80;;;;;;5043612;28;20459;-50
2023/11/17 01:57:39;;;;;;;3.23;1.50;;;11.00;74.00;;;;;;5041616;28;20509;-51
2023/11/17 02:00:08;;;;;;;3.23;1.77;;;11.10;73.90;;;;;;5036516;28;20482;-51
2023/11/17 02:02:35;;;;;;;1.57;1.47;;;11.10;73.70;;;;;;5041014;28;20438;-50
2023/11/17 02:05:01;;;;;;;2.03;1.93;;;11.00;73.70;;;;;;5044452;28;20469;-51
2023/11/17 02:07:36;;;;;;;1.70;1.60;;;11.10;73.60;;;;;;5035903;28;20745;-50
2023/11/17 02:10:21;;;;;;;1.57;1.47;;;11.30;72.80;;;;;;5035416;28;20463;-51
2023/11/17 02:12:59;;;;;;;1.40;1.30;;;11.40;72.20;;;;;;5041871;28;20431;-54
2023/11/17 02:15:29;;;;;;;1.57;1.47;;;11.30;72.50;;;;;;5038332;28;20522;-50
2023/11/17 02:17:56;;;;;;;2.17;1.30;;;11.30;72.60;;;;;;5037712;28;20513;-52
2023/11/17 02:20:25;;;;;;;2.90;1.77;;;11.30;72.40;;;;;;5032114;28;20486;-56
2023/11/17 02:22:57;;;;;;;1.60;1.50;;;11.40;72.00;;;;;;5029132;28;20439;-53
2023/11/17 02:25:36;;;;;;;1.67;1.43;;;11.40;72.20;;;;;;5031707;28;20448;-52
2023/11/17 02:28:34;;;;;;;1.73;1.33;;;11.50;72.10;;;;;;5036064;28;21221;-51
2023/11/17 02:31:12;;;;;;;1.43;1.33;;;11.40;71.50;;;;;;5034270;28;20500;-50
2023/11/17 02:33:41;;;;;;;2.77;1.53;;;11.40;72.00;;;;;;5029547;28;20438;-50
2023/11/17 02:36:16;;;;;;;1.53;1.43;;;11.50;71.70;;;;;;5033665;28;20514;-51
2023/11/17 02:38:56;;;;;;;3.53;1.50;;;11.60;71.50;;;;;;5029018;28;20533;-54
2023/11/17 02:41:32;;;;;;;1.70;1.60;;;11.70;71.30;;;;;;5033361;28;21006;-55
2023/11/17 02:44:02;;;;;;;1.70;1.60;;;11.70;71.10;;;;;;5032003;28;21000;-48
2023/11/17 02:46:34;;;;;;;2.73;1.60;;;11.80;70.40;;;;;;5032960;28;20443;-51
2023/11/17 02:49:04;;;;;;;1.60;1.50;;;11.80;70.10;;;;;;5037956;28;20462;-49
2023/11/17 02:51:32;;;;;;;2.40;1.80;;;11.90;70.10;;;;;;5040832;28;20450;-49
2023/11/17 02:54:02;;;;;;;2.30;2.10;;;11.90;69.90;;;;;;5033821;28;20451;-51
2023/11/17 02:56:30;;;;;;;1.90;1.70;;;11.90;70.30;;;;;;5040938;28;20443;-49
2023/11/17 02:58:56;;;;;;;4.30;2.47;;;12.00;70.20;;;;;;5043268;28;20521;-52
2023/11/17 03:01:24;;;;;;;3.33;2.50;;;12.00;69.90;;;;;;5037738;28;20431;-53
2023/11/17 03:03:50;;;;;;;2.23;2.13;;;12.00;70.40;;;;;;5038273;28;20466;-50
2023/11/17 03:06:16;;;;;;;2.13;1.93;;;11.90;70.50;;;;;;5039349;28;20467;-50
2023/11/17 03:08:42;;;;;;;2.63;2.43;;;11.90;70.50;;;;;;5040889;28;20642;-49
2023/11/17 03:11:09;;;;;;;2.60;2.40;;;12.00;70.40;;;;;;5046289;28;20438;-50
2023/11/17 03:13:35;;;;;;;3.17;2.60;;;12.00;70.60;;;;;;5046334;28;20783;-48
2023/11/17 03:16:01;;;;;;;2.97;2.67;;;11.80;70.80;;;;;;5044461;28;20435;-50
2023/11/17 03:18:27;;;;;;;3.47;3.17;;;11.80;70.90;;;;;;5047050;28;20803;-51
2023/11/17 03:20:56;;;;;;;2.93;2.73;;;11.80;71.40;;;;;;5051510;28;20481;-49
2023/11/17 03:23:23;;;;;;;2.87;2.63;;;11.70;71.60;;;;;;5040826;28;20189;-52
2023/11/17 03:25:52;;;;;;;3.50;2.80;;;11.80;71.50;;;;;;5040297;28;21002;-50
2023/11/17 03:28:18;;;;;;;3.73;3.37;;;11.80;71.20;;;;;;5043286;28;20885;-49
2023/11/17 03:30:44;;;;;;;2.97;2.63;;;11.90;70.80;;;;;;5039354;28;20474;-50
2023/11/17 03:33:11;;;;;;;2.93;2.67;;;12.00;70.30;;;;;;5043390;28;20456;-51
2023/11/17 03:35:40;;;;;;;4.30;3.13;;;12.10;70.40;;;;;;5045043;28;20331;-53
2023/11/17 03:38:07;;;;;;;5.03;3.00;;;12.00;70.10;;;;;;5034749;28;20434;-50
2023/11/17 03:40:35;;;;;;;4.03;3.00;;;12.00;70.60;;;;;;5038283;28;20486;-54
2023/11/17 03:43:01;;;;;;;3.00;2.50;;;12.10;70.60;;;;;;5039681;28;20794;-49
2023/11/17 03:45:27;;;;;;;3.30;2.80;;;12.10;70.80;;;;;;5040853;28;20460;-52
2023/11/17 03:47:53;;;;;;;2.93;2.73;;;12.20;70.00;;;;;;5041852;28;20444;-49
2023/11/17 03:50:20;;;;;;;4.63;4.23;;;12.10;70.00;;;;;;5044061;28;20219;-50
2023/11/17 03:52:45;;;;;;;3.53;3.30;;;12.10;70.20;;;;;;5040545;28;20275;-51
2023/11/17 03:55:11;;;;;;;4.97;3.00;;;12.00;70.20;;;;;;5043994;28;20782;-49
2023/11/17 03:57:37;;;;;;;3.43;3.13;;;12.00;70.20;;;;;;5038889;28;20577;-51
2023/11/17 04:00:05;;;;;;;6.40;3.83;;;11.90;70.90;;;;;;5037921;28;20231;-48
2023/11/17 04:02:31;;;;;;;2.90;2.70;;;12.00;70.70;;;;;;5034987;28;20439;-48
2023/11/17 04:04:57;;;;;;;3.40;3.10;;;12.00;70.60;;;;;;5036473;28;20447;-52
2023/11/17 04:07:23;;;;;;;3.10;2.73;;;12.10;70.20;;;;;;5044358;28;20524;-49
2023/11/17 04:09:49;;;;;;;4.40;3.00;;;12.10;70.00;;;;;;5046618;28;20217;-48
2023/11/17 04:12:15;;;;;;;4.03;3.20;;;12.10;70.00;;;;;;5039321;28;20617;-49
2023/11/17 04:14:42;;;;;;;3.40;3.10;;;12.20;70.00;;;;;;5042971;28;20447;-48
2023/11/17 04:17:08;;;;;;;4.77;3.57;;;12.10;70.30;;;;;;5036419;28;20231;-49
2023/11/17 04:19:34;;;;;;;4.43;3.70;;;12.00;70.50;;;;;;5037565;28;20484;-52
2023/11/17 04:22:00;;;;;;;3.83;3.10;;;12.10;70.50;;;;;;5034024;28;20486;-52
2023/11/17 04:24:26;;;;;;;5.60;3.70;;;12.10;71.00;;;;;;5041135;28;20443;-53
2023/11/17 04:26:51;;;;;;;5.20;4.00;;;12.00;71.10;;;;;;5046499;28;20184;-51
2023/11/17 04:29:17;;;;;;;3.83;2.97;;;12.00;70.90;;;;;;5037885;28;20202;-51
2023/11/17 04:31:43;;;;;;;4.90;3.23;;;11.90;71.60;;;;;;5039403;28;20651;-49
2023/11/17 04:34:11;;;;;;;3.97;3.10;;;12.00;71.40;;;;;;5038789;28;20230;-52
2023/11/17 04:36:37;;;;;;;5.23;3.50;;;11.90;71.00;;;;;;5033093;28;20431;-51
2023/11/17 04:39:11;;;;;;;4.03;3.20;;;12.00;70.80;;;;;;5031435;28;20491;-49
2023/11/17 04:41:37;;;;;;;3.40;3.10;;;12.00;70.70;;;;;;5037067;28;20443;-50
2023/11/17 04:44:03;;;;;;;2.80;2.60;;;12.00;70.70;;;;;;5042792;28;20430;-52
2023/11/17 04:46:29;;;;;;;3.87;3.47;;;12.10;71.10;;;;;;5037714;28;20204;-49
2023/11/17 04:48:55;;;;;;;4.80;3.93;;;12.10;70.80;;;;;;5037406;28;20924;-53
2023/11/17 04:51:20;;;;;;;3.77;3.10;;;12.10;71.00;;;;;;5041352;28;20185;-50
2023/11/17 04:53:46;;;;;;;5.43;3.30;;;12.10;70.90;;;;;;5045806;28;20664;-48
2023/11/17 04:56:13;;;;;;;4.50;3.20;;;12.10;71.10;;;;;;5046382;28;20606;-49
2023/11/17 04:58:39;;;;;;;3.40;3.10;;;11.90;70.80;;;;;;5039697;28;20231;-52
2023/11/17 05:01:05;;;;;;;4.87;2.93;;;12.00;71.10;;;;;;5040927;28;20447;-49
2023/11/17 05:03:31;;;;;;;3.70;3.23;;;12.00;70.60;;;;;;5042972;28;20443;-49
2023/11/17 05:05:56;;;;;;;4.10;3.20;;;12.10;70.20;;;;;;5042373;28;20189;-51
2023/11/17 05:08:22;;;;;;;3.53;3.20;;;12.00;70.10;;;;;;5039870;28;20189;-51
2023/11/17 05:10:48;;;;;;;4.70;2.73;;;12.20;70.20;;;;;;5038315;28;20699;-48
2023/11/17 05:13:14;;;;;;;3.33;3.03;;;12.20;69.40;;;;;;5040850;28;20577;-49
2023/11/17 05:15:43;;;;;;;5.63;3.53;;;12.30;69.50;;;;;;5044627;28;20526;-50
2023/11/17 05:18:09;;;;;;;3.30;3.00;;;12.30;69.40;;;;;;5040271;28;20196;-53
2023/11/17 05:20:35;;;;;;;3.43;2.53;;;12.30;69.10;;;;;;5043372;28;20990;-57
2023/11/17 05:23:01;;;;;;;2.93;2.73;;;12.20;69.30;;;;;;5037719;28;20284;-53
2023/11/17 05:25:27;;;;;;;4.43;2.77;;;12.20;69.40;;;;;;5042586;28;20461;-50
2023/11/17 05:27:53;;;;;;;3.37;3.07;;;12.20;69.00;;;;;;5034635;28;20257;-53
2023/11/17 05:30:19;;;;;;;3.90;3.10;;;12.20;69.00;;;;;;5043912;28;20599;-49
2023/11/17 05:32:46;;;;;;;4.90;3.10;;;12.10;69.20;;;;;;5033649;28;20188;-48
2023/11/17 05:35:11;;;;;;;3.37;2.30;;;12.10;69.20;;;;;;5039222;28;20571;-53
2023/11/17 05:37:38;;;;;;;3.50;2.70;;;12.20;68.80;;;;;;5038328;28;20546;-54
2023/11/17 05:40:05;;;;;;;4.57;2.90;;;12.20;68.80;;;;;;5039524;28;20216;-52
2023/11/17 05:42:31;;;;;;;3.07;2.87;;;12.20;68.90;;;;;;5040364;28;20535;-53
2023/11/17 05:44:57;;;;;;;2.83;2.60;;;12.20;68.90;;;;;;5035361;28;20554;-48
2023/11/17 05:47:22;;;;;;;3.03;2.50;;;12.20;68.50;;;;;;5044991;28;20222;-51
2023/11/17 05:49:48;;;;;;;4.13;3.60;;;12.10;68.70;;;;;;5045279;28;20215;-50
2023/11/17 05:52:15;;;;;;;2.83;2.60;;;12.20;68.60;;;;;;5042505;28;20216;-50
2023/11/17 05:54:45;;;;;;;5.87;3.07;;;12.20;68.50;;;;;;5036155;28;20185;-48
2023/11/17 05:57:18;;;;;;;3.33;2.93;;;12.30;68.30;;;;;;5039818;28;20471;-48
2023/11/17 05:59:45;;;;;;;6.33;2.73;;;12.30;68.00;;;;;;5038595;28;20579;-57
2023/11/17 06:02:14;;;;;;;3.40;2.77;;;12.40;68.00;;;;;;5039965;28;20440;-50
2023/11/17 06:04:41;;;;;;;9.33;4.20;;;12.40;67.80;;;;;;5038604;28;20455;-51
2023/11/17 06:07:08;;;;;;;3.10;2.77;;;12.40;67.50;;;;;;5040152;28;20436;-48
2023/11/17 06:09:35;;;;;;;4.13;3.40;;;12.30;68.10;;;;;;5042400;28;20454;-51
2023/11/17 06:12:00;;;;;;;3.13;2.83;;;12.10;68.30;;;;;;5041357;28;20431;-49
2023/11/17 06:14:33;;;;;;;2.87;2.10;;;12.00;68.70;;;;;;5039916;28;20954;-48
2023/11/17 06:17:00;;;;;;;2.60;2.40;;;11.90;69.30;;;;;;5040486;28;20197;-48
2023/11/17 06:19:28;;;;;;;4.40;2.80;;;11.90;69.60;;;;;;5043625;28;20479;-50
2023/11/17 06:21:54;;;;;;;7.73;2.80;;;11.90;69.60;;;;;;5040425;28;20530;-51
2023/11/17 06:24:20;;;;;;;2.97;2.30;;;11.90;69.30;;;;;;5039183;28;20444;-52
2023/11/17 06:26:46;;;;;;;2.67;2.47;;;11.80;70.00;;;;;;5036572;28;20434;-53
2023/11/17 06:29:16;;;;;;;4.60;2.37;;;11.80;70.00;;;;;;5038208;28;20470;-53
2023/11/17 06:31:42;;;;;;;3.23;2.63;;;11.80;70.40;;;;;;5035647;28;20204;-49
2023/11/17 06:34:09;;;;;;;2.60;2.40;;;12.00;70.00;;;;;;5039567;28;20509;-54
2023/11/17 06:36:37;;;;;;;3.93;2.43;;;12.00;69.30;;;;;;5034181;28;20470;-49
2023/11/17 06:39:13;;;;;;;3.97;3.00;;;12.10;69.00;;;;;;5040816;28;20569;-52
2023/11/17 06:41:49;;;;;;;4.13;2.50;;;12.20;68.80;;;;;;5038117;28;20880;-51
2023/11/17 06:44:22;;;;;;;2.93;2.53;;;12.40;68.30;;;;;;5036013;28;20427;-50
2023/11/17 06:46:49;;;;;;;4.23;2.87;;;12.50;67.80;;;;;;5033397;28;20848;-49
2023/11/17 06:49:18;;;;;;;5.63;3.77;;;12.60;67.60;;;;;;5038367;28;20455;-50
2023/11/17 06:51:44;;;;;;;9.20;6.00;;;12.70;66.90;;;;;;5037793;28;20443;-50
2023/11/17 06:54:13;;;;;;;10.93;7.03;;;12.80;66.90;;;;;;5040413;28;20798;-48
2023/11/17 06:56:40;;;;;;;3.60;3.30;;;13.00;66.80;;;;;;5038742;28;20955;-54
2023/11/17 06:59:07;;;;;;;4.37;3.63;;;13.10;65.90;;;;;;5033185;28;20482;-55
2023/11/17 07:01:35;;;;;;;3.70;3.13;;;13.00;64.90;;;;;;5040808;28;20438;-51
2023/11/17 07:04:02;;;;;;;7.40;3.50;;;13.10;65.10;;;;;;5035315;28;20518;-50
2023/11/17 07:06:28;;;;;;;3.17;2.63;;;13.10;64.90;;;;;;5032906;28;21004;-52
2023/11/17 07:08:54;;;;;;;4.43;3.60;;;13.20;65.10;;;;;;5044627;28;20454;-56
2023/11/17 07:11:19;;;;;;;8.60;3.40;;;13.10;64.30;;;;;;5040844;28;20430;-50
2023/11/17 07:13:45;;;;;;;3.60;3.30;;;13.20;64.50;;;;;;5042027;28;20193;-50
2023/11/17 07:16:12;;;;;;;7.63;2.80;;;13.20;64.10;;;;;;5036126;28;20192;-50
2023/11/17 07:18:38;;;;;;;3.90;2.90;;;13.20;64.30;;;;;;5042472;28;20208;-50
2023/11/17 07:21:04;;;;;;;3.10;2.20;;;13.20;64.30;;;;;;5042346;28;20449;-49
2023/11/17 07:23:30;;;;;;;4.50;3.70;;;13.10;64.10;;;;;;5031923;28;20460;-53
2023/11/17 07:25:55;;;;;;;5.60;4.67;;;13.10;64.50;;;;;;5040706;28;20220;-54
2023/11/17 07:28:21;;;;;;;3.10;2.67;;;13.00;64.30;;;;;;5039592;28;20295;-53
2023/11/17 07:30:48;;;;;;;5.70;3.90;;;12.70;64.50;;;;;;5038900;28;20195;-53
2023/11/17 07:33:16;;;;;;;3.50;2.73;;;12.50;65.90;;;;;;5040110;28;20185;-51
2023/11/17 07:35:42;;;;;;;3.40;3.10;;;12.50;66.30;;;;;;5038671;28;20435;-50
2023/11/17 07:38:08;;;;;;;4.13;2.83;;;12.60;66.50;;;;;;5043336;28;20458;-52
2023/11/17 07:40:34;;;;;;;3.33;3.03;;;12.50;66.60;;;;;;5036572;28;20216;-52
2023/11/17 07:43:00;;;;;;;3.67;3.37;;;12.30;67.00;;;;;;5040963;28;20438;-49
2023/11/17 07:45:25;;;;;;;7.00;3.33;;;12.30;67.90;;;;;;5043496;28;21396;-55
2023/11/17 07:47:51;;;;;;;4.60;3.57;;;12.30;67.80;;;;;;5038595;28;20180;-52
2023/11/17 07:50:19;;;;;;;6.27;3.73;;;12.40;68.40;;;;;;5039873;28;20208;-49
2023/11/17 07:52:45;;;;;;;4.90;4.40;;;12.30;67.40;;;;;;5046537;28;20661;-54
2023/11/17 07:55:13;;;;;;;10.17;6.00;;;12.40;67.50;;;;;;5044050;28;20510;-55
2023/11/17 07:57:42;;;;;;;6.57;5.07;;;12.30;67.90;;;;;;5040644;28;20188;-55
2023/11/17 08:00:27;;;;;;;5.73;4.03;;;12.40;67.70;;;;;;5041751;28;20528;-54
2023/11/17 08:02:53;;;;;;;5.83;4.00;;;12.50;67.60;;;;;;5046820;28;20446;-54
2023/11/17 08:05:19;;;;;;;5.33;3.80;;;12.60;67.70;;;;;;5048145;28;20422;-49
2023/11/17 08:07:45;;;;;;;3.27;2.83;;;12.40;68.20;;;;;;5043918;28;20964;-56
2023/11/17 08:10:11;;;;;;;3.60;3.27;;;12.30;68.70;;;;;;5039745;28;20305;-53
2023/11/17 08:12:37;;;;;;;4.90;3.40;;;12.30;68.50;;;;;;5046996;28;20539;-52
2023/11/17 08:15:05;;;;;;;5.00;3.70;;;12.40;68.30;;;;;;5042795;28;20557;-53
2023/11/17 08:17:31;;;;;;;3.83;3.53;;;12.30;68.40;;;;;;5039362;28;20240;-50
2023/11/17 08:19:58;;;;;;;4.70;4.20;;;12.30;68.60;;;;;;5048220;28;20574;-51
2023/11/17 08:22:24;;;;;;;5.37;4.07;;;12.30;68.80;;;;;;5046087;28;20471;-49
2023/11/17 08:24:51;;;;;;;5.23;4.30;;;12.40;68.90;;;;;;5048298;28;20488;-55
2023/11/17 08:27:16;;;;;;;6.77;4.93;;;12.40;69.00;;;;;;5043343;28;20424;-55
2023/11/17 08:29:42;;;;;;;4.97;4.33;;;12.30;68.90;;;;;;5042523;28;20443;-53
2023/11/17 08:32:08;;;;;;;9.23;5.57;;;12.30;69.30;;;;;;5041266;28;20189;-55
2023/11/17 08:34:35;;;;;;;9.10;5.20;;;12.40;69.30;;;;;;5037696;28;20185;-55
2023/11/17 08:37:00;;;;;;;5.07;4.03;;;12.30;69.10;;;;;;5040101;28;20521;-52
2023/11/17 08:39:26;;;;;;;6.50;5.80;;;12.10;69.20;;;;;;5043035;28;20502;-53
2023/11/17 08:41:55;;;;;;;5.80;4.40;;;12.00;69.80;;;;;;5040850;28;20660;-55
2023/11/17 08:44:22;;;;;;;8.17;4.43;;;12.10;69.40;;;;;;5042953;28;20193;-52
2023/11/17 08:46:51;;;;;;;8.60;4.53;;;12.20;69.50;;;;;;5042508;28;20450;-51
2023/11/17 08:49:16;;;;;;;7.00;4.87;;;12.40;69.20;;;;;;5044825;28;20455;-52
2023/11/17 08:51:42;;;;;;;5.30;4.80;;;12.30;68.90;;;;;;5041006;28;20462;-52
2023/11/17 08:54:08;;;;;;;6.73;5.47;;;12.50;68.50;;;;;;5046402;28;20243;-54
2023/11/17 08:56:35;;;;;;;7.53;6.40;;;12.50;68.00;;;;;;5042965;28;20451;-53
2023/11/17 08:59:02;;;;;;;7.23;4.67;;;12.60;68.30;;;;;;5046429;28;20392;-55
2023/11/17 09:01:28;;;;;;;5.10;4.60;;;12.60;68.20;;;;;;5042909;28;20755;-49
2023/11/17 09:03:54;;;;;;;6.10;5.30;;;12.70;68.10;;;;;;5042097;28;20435;-51
2023/11/17 09:06:20;;;;;;;6.57;5.43;;;12.80;68.40;;;;;;5039404;28;20443;-49
2023/11/17 09:08:46;;;;;;;6.93;5.37;;;12.90;68.10;;;;;;5040717;28;20201;-54
2023/11/17 09:11:11;;;;;;;6.60;4.70;;;13.00;67.70;;;;;;5035135;28;20181;-53
2023/11/17 09:13:39;;;;;;;5.70;5.10;;;13.10;67.20;;;;;;5041228;28;20459;-54
2023/11/17 09:16:07;;;;;;;6.20;5.27;;;13.10;66.90;;;;;;5042906;28;20435;-52
2023/11/17 09:18:32;;;;;;;4.80;4.20;;;13.20;66.60;;;;;;5039048;28;20485;-51
2023/11/17 09:20:58;;;;;;;4.97;4.47;;;13.20;66.50;;;;;;5038595;28;21287;-53
2023/11/17 09:23:23;;;;;;;4.27;3.87;;;13.30;66.20;;;;;;5041692;28;20215;-52
2023/11/17 09:25:49;;;;;;;5.53;4.50;;;13.40;66.20;;;;;;5040661;28;20672;-50
2023/11/17 09:28:16;;;;;;;6.43;4.67;;;13.30;65.90;;;;;;5040499;28;20254;-50
2023/11/17 09:30:42;;;;;;;6.00;4.13;;;13.30;65.50;;;;;;5038924;28;20192;-50
2023/11/17 09:33:08;;;;;;;5.70;4.37;;;13.40;65.60;;;;;;5046686;28;20462;-49
2023/11/17 09:35:36;;;;;;;7.77;4.93;;;13.40;65.30;;;;;;5040327;28;20435;-52
2023/11/17 09:38:05;;;;;;;5.50;4.80;;;13.40;65.20;;;;;;5042354;28;20467;-49
2023/11/17 09:40:33;;;;;;;6.37;4.90;;;13.40;65.20;;;;;;5044552;28;20471;-53
2023/11/17 09:43:18;;;;;;;4.70;4.20;;;13.30;65.30;;;;;;5038711;28;20769;-49
2023/11/17 09:45:47;;;;;;;5.20;4.27;;;13.30;65.70;;;;;;5043333;28;20466;-53
2023/11/17 09:48:14;;;;;;;5.70;4.50;;;13.30;65.70;;;;;;5038464;28;20443;-51
2023/11/17 09:50:41;;;;;;;7.07;4.53;;;13.30;65.80;;;;;;5042328;28;20443;-52
2023/11/17 09:53:09;;;;;;;6.57;4.47;;;13.20;66.00;;;;;;5041050;28;20438;-50
2023/11/17 09:55:38;;;;;;;5.40;4.70;;;13.10;66.10;;;;;;5041539;28;20450;-54
2023/11/17 09:58:07;;;;;;;5.80;4.03;;;13.10;66.10;;;;;;5043213;28;20976;-52
2023/11/17 10:00:36;;;;;;;4.87;3.90;;;13.10;66.20;;;;;;5038045;28;20970;-49
2023/11/17 10:03:03;;;;;;;9.00;4.80;;;13.00;66.50;;;;;;5036160;28;20495;-51
2023/11/17 10:05:31;;;;;;;8.23;4.90;;;13.10;66.40;;;;;;5040592;28;20451;-52
2023/11/17 10:08:17;;;;;;;8.27;7.47;;;13.10;66.30;;;;;;5044851;28;20432;-51
2023/11/17 10:10:45;;;;;;;6.97;5.80;;;13.30;66.50;;;;;;5038505;28;20423;-50
2023/11/17 10:13:12;;;;;;;7.37;5.53;;;13.40;66.30;;;;;;5043764;28;20431;-51
2023/11/17 10:15:50;;;;;;;8.77;6.70;;;13.40;66.30;;;;;;5041045;28;20442;-50
2023/11/17 10:18:26;;;;;;;9.43;6.97;;;13.50;66.00;;;;;;5043308;28;20973;-49
2023/11/17 10:20:53;;;;;;;9.40;6.70;;;13.50;66.00;;;;;;5047419;28;20505;-49
2023/11/17 10:23:20;;;;;;;10.37;6.93;;;13.50;65.90;;;;;;5039511;28;20474;-50
2023/11/17 10:25:53;;;;;;;5.23;4.67;;;13.50;65.80;;;;;;5036784;28;20430;-54
2023/11/17 10:28:19;;;;;;;6.43;5.60;;;13.40;65.60;;;;;;5036638;28;20447;-51
2023/11/17 10:30:46;;;;;;;7.30;5.80;;;13.50;65.60;;;;;;5041562;28;20431;-49
2023/11/17 10:33:34;;;;;;;4.63;3.90;;;13.50;65.40;;;;;;5040337;28;20177;-49
2023/11/17 10:36:04;;;;;;;6.00;4.60;;;13.40;64.90;;;;;;5039950;28;20442;-57
2023/11/17 10:38:34;;;;;;;5.50;4.17;;;13.40;65.10;;;;;;5035689;28;21014;-50
2023/11/17 10:41:39;;;;;;;4.23;3.27;;;13.40;65.10;;;;;;5038750;28;20557;-49
2023/11/17 10:44:08;;;;;;;3.90;3.50;;;13.20;65.50;;;;;;5042448;28;20534;-51
2023/11/17 10:46:40;;;;;;;3.53;2.80;;;13.10;65.60;;;;;;5038581;28;20541;-51
2023/11/17 10:49:06;;;;;;;3.43;3.13;;;13.20;65.60;;;;;;5034288;28;20474;-50
2023/11/17 10:51:32;;;;;;;5.10;3.40;;;13.20;65.50;;;;;;5035356;28;20448;-50
2023/11/17 10:54:08;;;;;;;3.30;3.00;;;13.20;65.70;;;;;;5038567;28;20204;-50
2023/11/17 10:56:35;;;;;;;4.30;3.33;;;13.10;65.70;;;;;;5044401;28;20441;-49
2023/11/17 10:59:02;;;;;;;3.60;3.30;;;13.10;65.70;;;;;;5044868;28;20557;-51
2023/11/17 11:01:31;;;;;;;3.70;3.40;;;13.20;65.80;;;;;;5038117;28;20442;-52
2023/11/17 11:03:58;;;;;;;3.93;3.63;;;13.20;65.90;;;;;;5043419;28;20435;-51
2023/11/17 11:06:27;;;;;;;3.50;3.20;;;13.20;65.80;;;;;;5039234;28;20450;-53
2023/11/17 11:08:54;;;;;;;3.30;3.00;;;13.20;65.70;;;;;;5037109;28;20966;-50
2023/11/17 11:11:24;;;;;;;4.53;4.13;;;13.30;65.60;;;;;;5046962;28;20439;-49
2023/11/17 11:13:56;;;;;;;5.93;3.63;;;13.40;65.50;;;;;;5046298;28;21015;-52
2023/11/17 11:16:23;;;;;;;5.13;3.73;;;13.40;65.50;;;;;;5039691;28;21106;-49
2023/11/17 11:18:53;;;;;;;4.30;3.83;;;13.40;65.60;;;;;;5037662;28;20473;-51
2023/11/17 11:21:20;;;;;;;4.07;3.70;;;13.50;65.90;;;;;;5039441;28;20423;-50
2023/11/17 11:23:47;;;;;;;4.00;3.60;;;13.60;65.70;;;;;;5044887;28;20427;-56
2023/11/17 11:26:14;;;;;;;3.97;3.10;;;13.60;65.20;;;;;;5044000;28;20438;-50
2023/11/17 11:28:41;;;;;;;3.93;3.53;;;13.70;65.10;;;;;;5044742;28;20455;-54
2023/11/17 11:31:09;;;;;;;3.90;3.60;;;13.70;64.60;;;;;;5035085;28;20451;-52
2023/11/17 11:33:35;;;;;;;4.10;3.70;;;13.60;64.50;;;;;;5037461;28;20510;-51
2023/11/17 11:36:02;;;;;;;4.07;3.50;;;13.60;64.50;;;;;;5045036;28;21148;-51
2023/11/17 11:38:28;;;;;;;3.17;2.60;;;13.60;64.40;;;;;;5040043;28;20951;-53
2023/11/17 11:40:55;;;;;;;2.93;2.70;;;13.60;64.40;;;;;;5047105;28;20478;-51
2023/11/17 11:43:22;;;;;;;2.93;2.67;;;13.50;64.20;;;;;;5047047;28;20424;-49
2023/11/17 11:45:49;;;;;;;3.13;2.80;;;13.50;64.30;;;;;;5043310;28;20827;-53
2023/11/17 11:48:20;;;;;;;2.47;2.27;;;13.50;63.90;;;;;;5040397;28;20453;-53
2023/11/17 11:50:49;;;;;;;5.10;3.37;;;13.50;64.30;;;;;;5035222;28;20439;-53
2023/11/17 11:53:41;;;;;;;4.67;3.10;;;13.30;64.10;;;;;;5038725;28;20515;-53
2023/11/17 11:56:11;;;;;;;4.33;2.80;;;13.20;64.20;;;;;;5041909;28;20981;-49
2023/11/17 11:58:48;;;;;;;2.90;2.70;;;13.00;65.00;;;;;;5047950;28;20561;-52
2023/11/17 12:01:18;;;;;;;3.63;3.33;;;13.00;65.10;;;;;;5042762;28;20454;-53
2023/11/17 12:03:52;;;;;;;4.10;3.57;;;13.00;65.10;;;;;;5048958;28;21092;-50
2023/11/17 12:06:26;;;;;;;3.40;2.90;;;13.00;64.90;;;;;;5040425;28;20472;-54
2023/11/17 12:08:53;;;;;;;3.73;2.93;;;13.00;65.20;;;;;;5037643;28;20540;-52
2023/11/17 12:11:19;;;;;;;4.20;3.13;;;12.90;65.30;;;;;;5044148;28;21021;-49
2023/11/17 12:13:55;;;;;;;2.93;2.73;;;12.90;64.90;;;;;;5037212;28;20451;-50
2023/11/17 12:16:29;;;;;;;4.00;3.47;;;12.90;65.30;;;;;;5039347;28;20587;-52
2023/11/17 12:18:57;;;;;;;3.43;3.13;;;13.00;65.30;;;;;;5039348;28;20460;-53
2023/11/17 12:21:24;;;;;;;3.73;3.43;;;12.90;65.50;;;;;;5040425;28;20451;-53
2023/11/17 12:23:57;;;;;;;5.83;3.20;;;13.00;65.40;;;;;;5045019;28;20435;-50
2023/11/17 12:26:25;;;;;;;5.03;2.83;;;13.00;65.00;;;;;;5038929;28;20463;-53
2023/11/17 12:28:52;;;;;;;4.27;3.57;;;12.90;64.90;;;;;;5041935;28;20463;-53
2023/11/17 12:31:18;;;;;;;2.83;2.63;;;12.90;65.20;;;;;;5040053;28;20439;-51
2023/11/17 12:33:46;;;;;;;2.90;2.70;;;13.00;65.00;;;;;;5045641;28;20442;-49
2023/11/17 12:36:17;;;;;;;3.83;2.83;;;12.90;65.60;;;;;;5039896;28;20185;-52
2023/11/17 12:38:43;;;;;;;3.83;2.53;;;13.00;65.50;;;;;;5042439;28;20463;-52
2023/11/17 12:41:13;;;;;;;3.40;2.23;;;12.70;64.90;;;;;;5044700;28;20497;-52
2023/11/17 12:43:39;;;;;;;2.90;2.13;;;12.70;65.30;;;;;;5040284;28;20440;-52
2023/11/17 12:46:06;;;;;;;2.23;2.03;;;12.60;65.80;;;;;;5039394;28;20438;-52
2023/11/17 12:48:33;;;;;;;2.27;2.07;;;12.70;66.00;;;;;;5038506;28;20463;-51